sensor_id;sensor_type;location;lat;lon;timestamp;P1;durP1;ratioP1;P2;durP2;ratioP2
32146;SDS011;32190;49.112;8.598;2024-02-21T00:04:11;4.25;;;1.77;;
32146;SDS011;32190;49.112;8.598;2024-02-21T00:10:02;6.03;;;1.73;;
32146;SDS011;32190;49.112;8.598;2024-02-21T00:15:53;2.40;;;1.33;;
32146;SDS011;32190;49.112;8.598;2024-02-21T00:21:44;1.90;;;1.30;;
32146;SDS011;32190;49.112;8.598;2024-02-21T00:27:34;1.88;;;1.48;;
32146;SDS011;32190;49.112;8.598;2024-02-21T00:33:25;4.22;;;2.20;;
32146;SDS011;32190;49.112;8.598;2024-02-21T00:39:16;1.60;;;1.27;;
32146;SDS011;32190;49.112;8.598;2024-02-21T00:45:07;3.92;;;1.30;;
32146;SDS011;32190;49.112;8.598;2024-02-21T00:50:58;1.75;;;1.27;;
32146;SDS011;32190;49.112;8.598;2024-02-21T00:56:48;2.63;;;1.42;;
32146;SDS011;32190;49.112;8.598;2024-02-21T01:02:39;4.10;;;1.65;;
32146;SDS011;32190;49.112;8.598;2024-02-21T01:08:30;2.55;;;1.23;;
32146;SDS011;32190;49.112;8.598;2024-02-21T01:14:20;1.88;;;1.30;;
32146;SDS011;32190;49.112;8.598;2024-02-21T01:20:11;4.35;;;1.20;;
32146;SDS011;32190;49.112;8.598;2024-02-21T01:26:02;3.38;;;1.30;;
32146;SDS011;32190;49.112;8.598;2024-02-21T01:31:53;2.50;;;1.23;;
32146;SDS011;32190;49.112;8.598;2024-02-21T01:37:44;2.50;;;1.25;;
32146;SDS011;32190;49.112;8.598;2024-02-21T01:43:35;2.70;;;1.45;;
32146;SDS011;32190;49.112;8.598;2024-02-21T01:49:25;2.47;;;1.08;;
32146;SDS011;32190;49.112;8.598;2024-02-21T01:55:16;1.55;;;1.10;;
32146;SDS011;32190;49.112;8.598;2024-02-21T02:01:07;1.88;;;1.02;;
32146;SDS011;32190;49.112;8.598;2024-02-21T02:06:59;1.45;;;1.35;;
32146;SDS011;32190;49.112;8.598;2024-02-21T02:12:52;5.03;;;1.30;;
32146;SDS011;32190;49.112;8.598;2024-02-21T02:18:43;1.92;;;0.98;;
32146;SDS011;32190;49.112;8.598;2024-02-21T02:24:33;2.63;;;0.98;;
32146;SDS011;32190;49.112;8.598;2024-02-21T02:30:24;2.20;;;0.80;;
32146;SDS011;32190;49.112;8.598;2024-02-21T02:36:15;1.23;;;0.70;;
32146;SDS011;32190;49.112;8.598;2024-02-21T02:42:05;3.50;;;0.88;;
32146;SDS011;32190;49.112;8.598;2024-02-21T02:47:56;1.70;;;0.80;;
32146;SDS011;32190;49.112;8.598;2024-02-21T02:53:47;3.97;;;1.55;;
32146;SDS011;32190;49.112;8.598;2024-02-21T02:59:37;2.63;;;1.00;;
32146;SDS011;32190;49.112;8.598;2024-02-21T03:05:28;2.80;;;0.93;;
32146;SDS011;32190;49.112;8.598;2024-02-21T03:11:19;1.63;;;1.02;;
32146;SDS011;32190;49.112;8.598;2024-02-21T03:17:09;1.88;;;0.95;;
32146;SDS011;32190;49.112;8.598;2024-02-21T03:23:00;1.58;;;0.90;;
32146;SDS011;32190;49.112;8.598;2024-02-21T03:28:50;1.45;;;1.08;;
32146;SDS011;32190;49.112;8.598;2024-02-21T03:34:41;1.77;;;0.85;;
32146;SDS011;32190;49.112;8.598;2024-02-21T03:40:31;2.42;;;0.80;;
32146;SDS011;32190;49.112;8.598;2024-02-21T03:46:23;4.43;;;1.05;;
32146;SDS011;32190;49.112;8.598;2024-02-21T03:52:15;3.50;;;1.33;;
32146;SDS011;32190;49.112;8.598;2024-02-21T03:58:06;2.35;;;0.88;;
32146;SDS011;32190;49.112;8.598;2024-02-21T04:03:56;2.20;;;1.20;;
32146;SDS011;32190;49.112;8.598;2024-02-21T04:09:47;3.20;;;1.10;;
32146;SDS011;32190;49.112;8.598;2024-02-21T04:15:38;2.35;;;0.95;;
32146;SDS011;32190;49.112;8.598;2024-02-21T04:21:28;4.05;;;0.93;;
32146;SDS011;32190;49.112;8.598;2024-02-21T04:27:19;3.50;;;0.93;;
32146;SDS011;32190;49.112;8.598;2024-02-21T04:33:09;1.20;;;0.95;;
32146;SDS011;32190;49.112;8.598;2024-02-21T04:39:00;2.80;;;1.17;;
32146;SDS011;32190;49.112;8.598;2024-02-21T04:44:51;2.70;;;1.27;;
32146;SDS011;32190;49.112;8.598;2024-02-21T04:50:41;1.52;;;0.90;;
32146;SDS011;32190;49.112;8.598;2024-02-21T04:56:32;3.08;;;1.30;;
32146;SDS011;32190;49.112;8.598;2024-02-21T05:02:24;1.45;;;0.70;;
32146;SDS011;32190;49.112;8.598;2024-02-21T05:08:16;1.40;;;0.82;;
32146;SDS011;32190;49.112;8.598;2024-02-21T05:14:06;2.05;;;0.80;;
32146;SDS011;32190;49.112;8.598;2024-02-21T05:19:57;1.83;;;0.95;;
32146;SDS011;32190;49.112;8.598;2024-02-21T05:25:48;10.05;;;4.60;;
32146;SDS011;32190;49.112;8.598;2024-02-21T05:37:41;10.93;;;6.32;;
32146;SDS011;32190;49.112;8.598;2024-02-21T05:43:31;7.72;;;4.88;;
32146;SDS011;32190;49.112;8.598;2024-02-21T05:49:22;5.93;;;3.30;;
32146;SDS011;32190;49.112;8.598;2024-02-21T05:55:13;4.13;;;2.08;;
32146;SDS011;32190;49.112;8.598;2024-02-21T06:01:04;5.25;;;2.40;;
32146;SDS011;32190;49.112;8.598;2024-02-21T06:06:58;2.53;;;1.80;;
32146;SDS011;32190;49.112;8.598;2024-02-21T06:12:49;3.58;;;1.70;;
32146;SDS011;32190;49.112;8.598;2024-02-21T06:18:39;2.78;;;1.83;;
32146;SDS011;32190;49.112;8.598;2024-02-21T06:24:30;3.08;;;2.22;;
32146;SDS011;32190;49.112;8.598;2024-02-21T06:30:23;6.00;;;1.90;;
32146;SDS011;32190;49.112;8.598;2024-02-21T06:36:14;2.08;;;1.40;;
32146;SDS011;32190;49.112;8.598;2024-02-21T06:42:04;3.53;;;1.35;;
32146;SDS011;32190;49.112;8.598;2024-02-21T06:47:55;1.50;;;1.13;;
32146;SDS011;32190;49.112;8.598;2024-02-21T06:53:45;3.33;;;1.10;;
32146;SDS011;32190;49.112;8.598;2024-02-21T06:59:36;1.80;;;1.15;;
32146;SDS011;32190;49.112;8.598;2024-02-21T07:05:27;2.08;;;1.00;;
32146;SDS011;32190;49.112;8.598;2024-02-21T07:11:17;3.05;;;1.27;;
32146;SDS011;32190;49.112;8.598;2024-02-21T07:17:08;1.63;;;1.08;;
32146;SDS011;32190;49.112;8.598;2024-02-21T07:22:59;0.80;;;0.75;;
32146;SDS011;32190;49.112;8.598;2024-02-21T07:28:49;2.05;;;1.02;;
32146;SDS011;32190;49.112;8.598;2024-02-21T07:34:40;2.53;;;1.00;;
32146;SDS011;32190;49.112;8.598;2024-02-21T07:40:30;1.67;;;0.90;;
32146;SDS011;32190;49.112;8.598;2024-02-21T07:46:21;2.17;;;1.10;;
32146;SDS011;32190;49.112;8.598;2024-02-21T07:52:12;1.48;;;1.10;;
32146;SDS011;32190;49.112;8.598;2024-02-21T07:58:02;2.13;;;0.82;;
32146;SDS011;32190;49.112;8.598;2024-02-21T08:03:53;4.05;;;1.17;;
32146;SDS011;32190;49.112;8.598;2024-02-21T08:09:44;3.33;;;0.63;;
32146;SDS011;32190;49.112;8.598;2024-02-21T08:15:34;2.60;;;0.77;;
32146;SDS011;32190;49.112;8.598;2024-02-21T08:21:25;1.25;;;1.13;;
32146;SDS011;32190;49.112;8.598;2024-02-21T08:27:15;2.45;;;0.80;;
32146;SDS011;32190;49.112;8.598;2024-02-21T08:33:11;1.10;;;0.90;;
32146;SDS011;32190;49.112;8.598;2024-02-21T08:39:02;1.52;;;0.77;;
32146;SDS011;32190;49.112;8.598;2024-02-21T08:44:54;1.88;;;0.90;;
32146;SDS011;32190;49.112;8.598;2024-02-21T08:50:45;2.58;;;0.88;;
32146;SDS011;32190;49.112;8.598;2024-02-21T08:56:36;2.10;;;0.70;;
32146;SDS011;32190;49.112;8.598;2024-02-21T09:02:26;0.88;;;0.85;;
32146;SDS011;32190;49.112;8.598;2024-02-21T09:08:17;0.70;;;0.70;;
32146;SDS011;32190;49.112;8.598;2024-02-21T09:14:09;1.73;;;0.90;;
32146;SDS011;32190;49.112;8.598;2024-02-21T09:19:59;1.88;;;0.65;;
32146;SDS011;32190;49.112;8.598;2024-02-21T09:25:53;1.15;;;0.80;;
32146;SDS011;32190;49.112;8.598;2024-02-21T09:31:45;3.00;;;0.80;;
32146;SDS011;32190;49.112;8.598;2024-02-21T09:37:38;2.22;;;1.05;;
32146;SDS011;32190;49.112;8.598;2024-02-21T09:43:29;8.15;;;1.10;;
32146;SDS011;32190;49.112;8.598;2024-02-21T09:49:30;1.67;;;1.13;;
32146;SDS011;32190;49.112;8.598;2024-02-21T10:01:42;3.17;;;1.00;;
32146;SDS011;32190;49.112;8.598;2024-02-21T10:07:40;2.20;;;1.08;;
32146;SDS011;32190;49.112;8.598;2024-02-21T10:13:32;2.95;;;1.52;;
32146;SDS011;32190;49.112;8.598;2024-02-21T10:19:22;4.75;;;1.58;;
32146;SDS011;32190;49.112;8.598;2024-02-21T10:25:13;3.83;;;1.00;;
32146;SDS011;32190;49.112;8.598;2024-02-21T10:31:04;3.63;;;1.23;;
32146;SDS011;32190;49.112;8.598;2024-02-21T10:43:15;2.88;;;1.52;;
32146;SDS011;32190;49.112;8.598;2024-02-21T10:49:14;2.90;;;1.30;;
32146;SDS011;32190;49.112;8.598;2024-02-21T10:55:21;2.33;;;1.08;;
32146;SDS011;32190;49.112;8.598;2024-02-21T11:01:29;1.58;;;1.00;;
32146;SDS011;32190;49.112;8.598;2024-02-21T11:07:25;2.70;;;0.90;;
32146;SDS011;32190;49.112;8.598;2024-02-21T11:13:16;1.45;;;1.20;;
32146;SDS011;32190;49.112;8.598;2024-02-21T11:19:08;3.25;;;1.02;;
32146;SDS011;32190;49.112;8.598;2024-02-21T11:25:09;1.73;;;1.08;;
32146;SDS011;32190;49.112;8.598;2024-02-21T11:31:06;3.00;;;1.38;;
32146;SDS011;32190;49.112;8.598;2024-02-21T11:37:14;5.32;;;1.23;;
32146;SDS011;32190;49.112;8.598;2024-02-21T11:43:07;1.60;;;1.10;;
32146;SDS011;32190;49.112;8.598;2024-02-21T11:48:58;1.75;;;0.90;;
32146;SDS011;32190;49.112;8.598;2024-02-21T11:54:51;3.05;;;1.20;;
32146;SDS011;32190;49.112;8.598;2024-02-21T12:00:43;3.10;;;0.85;;
32146;SDS011;32190;49.112;8.598;2024-02-21T12:06:34;1.02;;;0.70;;
32146;SDS011;32190;49.112;8.598;2024-02-21T12:12:24;1.95;;;1.15;;
32146;SDS011;32190;49.112;8.598;2024-02-21T12:18:15;3.05;;;1.02;;
32146;SDS011;32190;49.112;8.598;2024-02-21T12:24:12;3.00;;;0.88;;
32146;SDS011;32190;49.112;8.598;2024-02-21T12:30:10;2.28;;;0.73;;
32146;SDS011;32190;49.112;8.598;2024-02-21T12:36:01;2.58;;;1.42;;
32146;SDS011;32190;49.112;8.598;2024-02-21T12:41:54;1.65;;;0.77;;
32146;SDS011;32190;49.112;8.598;2024-02-21T12:47:46;2.65;;;0.75;;
32146;SDS011;32190;49.112;8.598;2024-02-21T12:53:37;4.20;;;0.73;;
32146;SDS011;32190;49.112;8.598;2024-02-21T12:59:28;2.97;;;0.88;;
32146;SDS011;32190;49.112;8.598;2024-02-21T13:05:19;3.95;;;1.00;;
32146;SDS011;32190;49.112;8.598;2024-02-21T13:11:09;2.00;;;0.77;;
32146;SDS011;32190;49.112;8.598;2024-02-21T13:17:01;0.43;;;0.40;;
32146;SDS011;32190;49.112;8.598;2024-02-21T13:22:51;1.75;;;0.57;;
32146;SDS011;32190;49.112;8.598;2024-02-21T13:28:42;1.02;;;0.80;;
32146;SDS011;32190;49.112;8.598;2024-02-21T13:34:35;1.73;;;0.63;;
32146;SDS011;32190;49.112;8.598;2024-02-21T13:40:28;1.65;;;0.80;;
32146;SDS011;32190;49.112;8.598;2024-02-21T13:46:19;1.00;;;0.70;;
32146;SDS011;32190;49.112;8.598;2024-02-21T13:52:09;0.88;;;0.88;;
32146;SDS011;32190;49.112;8.598;2024-02-21T13:58:00;1.58;;;0.73;;
32146;SDS011;32190;49.112;8.598;2024-02-21T14:03:51;3.67;;;0.95;;
32146;SDS011;32190;49.112;8.598;2024-02-21T14:09:41;2.38;;;1.00;;
32146;SDS011;32190;49.112;8.598;2024-02-21T14:15:32;1.98;;;0.75;;
32146;SDS011;32190;49.112;8.598;2024-02-21T14:21:22;1.13;;;0.63;;
32146;SDS011;32190;49.112;8.598;2024-02-21T14:27:13;0.80;;;0.75;;
32146;SDS011;32190;49.112;8.598;2024-02-21T14:33:04;0.93;;;0.65;;
32146;SDS011;32190;49.112;8.598;2024-02-21T14:38:54;1.52;;;0.80;;
32146;SDS011;32190;49.112;8.598;2024-02-21T14:44:45;0.60;;;0.52;;
32146;SDS011;32190;49.112;8.598;2024-02-21T14:50:35;3.33;;;1.98;;
32146;SDS011;32190;49.112;8.598;2024-02-21T14:56:26;1.85;;;1.15;;
32146;SDS011;32190;49.112;8.598;2024-02-21T15:02:19;1.15;;;0.93;;
32146;SDS011;32190;49.112;8.598;2024-02-21T15:08:10;2.72;;;1.55;;
32146;SDS011;32190;49.112;8.598;2024-02-21T15:14:01;1.33;;;0.90;;
32146;SDS011;32190;49.112;8.598;2024-02-21T15:19:52;1.10;;;0.80;;
32146;SDS011;32190;49.112;8.598;2024-02-21T15:25:44;0.82;;;0.68;;
32146;SDS011;32190;49.112;8.598;2024-02-21T15:31:35;1.73;;;1.30;;
32146;SDS011;32190;49.112;8.598;2024-02-21T15:37:26;2.55;;;0.73;;
32146;SDS011;32190;49.112;8.598;2024-02-21T15:43:16;2.30;;;0.95;;
32146;SDS011;32190;49.112;8.598;2024-02-21T15:49:16;3.88;;;2.17;;
32146;SDS011;32190;49.112;8.598;2024-02-21T15:55:07;3.17;;;1.90;;
32146;SDS011;32190;49.112;8.598;2024-02-21T16:01:00;4.13;;;1.75;;
32146;SDS011;32190;49.112;8.598;2024-02-21T17:46:53;3.75;;;2.03;;
32146;SDS011;32190;49.112;8.598;2024-02-21T17:58:44;2.83;;;1.63;;
32146;SDS011;32190;49.112;8.598;2024-02-21T18:45:35;0.90;;;0.73;;
32146;SDS011;32190;49.112;8.598;2024-02-21T19:24:18;4.25;;;1.20;;
32146;SDS011;32190;49.112;8.598;2024-02-21T19:30:08;0.85;;;0.85;;
32146;SDS011;32190;49.112;8.598;2024-02-21T19:55:48;2.33;;;0.80;;
32146;SDS011;32190;49.112;8.598;2024-02-21T21:36:53;0.60;;;0.50;;
32146;SDS011;32190;49.112;8.598;2024-02-21T21:49:00;1.75;;;0.80;;
32146;SDS011;32190;49.112;8.598;2024-02-21T21:54:51;1.77;;;0.90;;
32146;SDS011;32190;49.112;8.598;2024-02-21T22:00:41;1.92;;;0.93;;
32146;SDS011;32190;49.112;8.598;2024-02-21T22:06:33;0.85;;;0.80;;
32146;SDS011;32190;49.112;8.598;2024-02-21T22:12:24;1.15;;;0.93;;
32146;SDS011;32190;49.112;8.598;2024-02-21T22:18:15;0.60;;;0.60;;
32146;SDS011;32190;49.112;8.598;2024-02-21T22:24:05;1.25;;;0.82;;
32146;SDS011;32190;49.112;8.598;2024-02-21T22:29:56;2.05;;;0.88;;
32146;SDS011;32190;49.112;8.598;2024-02-21T22:35:47;0.82;;;0.70;;
32146;SDS011;32190;49.112;8.598;2024-02-21T22:41:38;1.30;;;0.80;;
32146;SDS011;32190;49.112;8.598;2024-02-21T22:47:35;1.52;;;1.00;;
32146;SDS011;32190;49.112;8.598;2024-02-21T22:53:28;1.23;;;0.80;;
32146;SDS011;32190;49.112;8.598;2024-02-21T22:59:25;0.80;;;0.80;;
32146;SDS011;32190;49.112;8.598;2024-02-21T23:05:24;1.10;;;1.00;;
32146;SDS011;32190;49.112;8.598;2024-02-21T23:11:15;0.68;;;0.68;;
32146;SDS011;32190;49.112;8.598;2024-02-21T23:17:05;1.95;;;0.82;;
32146;SDS011;32190;49.112;8.598;2024-02-21T23:22:57;1.38;;;0.90;;
32146;SDS011;32190;49.112;8.598;2024-02-21T23:28:50;1.10;;;1.00;;
32146;SDS011;32190;49.112;8.598;2024-02-21T23:34:41;1.05;;;0.88;;
32146;SDS011;32190;49.112;8.598;2024-02-21T23:40:33;0.80;;;0.80;;
32146;SDS011;32190;49.112;8.598;2024-02-21T23:46:27;1.02;;;0.80;;
32146;SDS011;32190;49.112;8.598;2024-02-21T23:52:18;0.70;;;0.70;;
32146;SDS011;32190;49.112;8.598;2024-02-21T23:58:09;0.77;;;0.77;;
